• Join FlightAware (Why Join?)
  • Login
  • US Flag 
08:33PM EDT


 

Airport Tracker/Info


-or-


 

Live Flight TrackerFlight Track Log ✈ EJA604 ✈ 19-Apr-2013 ✈ KTEB - KHEF

Flight Track Log - Related Links

Times and Time Zones

All times are in EDT time to prevent confusion due to time zone crossing. See the EJA604 flight status page for this flight to view local times or setup timezone preferences in your user account.

Time Position Orientation Groundspeed Altitude Reporting Facility
EDT Latitude Longitude Course Direction KTS MPH feet Rate Location/Type
03:21PM 40.8333 -74.1167 246° West 178 205 1,600  Level New York TRACON
03:22PM 40.8167 -74.1667 246° West 191 220 2,000 1,680 Climbing New York TRACON
03:23PM 40.8167 -74.2500 270° West 206 237 4,900 2,880 Climbing New York TRACON
03:24PM 40.8167 -74.3167 270° West 226 260 7,800 2,520 Climbing New York TRACON
03:25PM 40.8000 -74.4167 258° West 246 283 10,000 2,160 Climbing New York TRACON
03:27PM 40.7614 -74.6231 256° West 275 316 14,900 1,980 Climbing New York Center
03:28PM 40.7458 -74.7100 257° West 275 316 16,600 1,080 Climbing New York Center
03:29PM 40.7275 -74.8211 258° West 283 326 17,100 180 Climbing New York Center
03:30PM 40.7069 -74.9347 257° West 304 350 17,000 -60 Descending New York Center
03:31PM 40.6908 -75.0325 258° West 309 356 17,000 300 Level New York Center
03:32PM 40.6786 -75.1411 262° West 309 356 17,600 900 Climbing New York Center
03:33PM 40.6642 -75.2469 260° West 309 356 18,800 660 Climbing New York Center
03:34PM 40.6189 -75.3422 238° Southwest 302 348 19,000 60 Climbing New York Center
03:35PM 40.5672 -75.4400 235° Southwest 321 369 19,000  Level New York Center
03:36PM 40.5194 -75.5378 237° Southwest 326 375 19,000  Level New York Center
03:37PM 40.4700 -75.6297 235° Southwest 326 375 19,000  Level New York Center
03:38PM 40.4156 -75.7350 236° Southwest 315 362 19,000  Level New York Center
03:39PM 40.3658 -75.8269 235° Southwest 315 362 19,000  Level New York Center
03:40PM 40.3225 -75.9136 237° Southwest 315 362 19,000  Level New York Center
03:41PM 40.2656 -76.0208 235° Southwest 315 362 19,000  Level New York Center
03:42PM 40.2203 -76.1044 235° Southwest 315 362 19,000  Level New York Center
03:43PM 40.1700 -76.1956 234° Southwest 315 362 19,000  Level New York Center
03:44PM 40.1150 -76.3028 236° Southwest 315 362 19,000  Level New York Center
03:45PM 40.0686 -76.4019 239° Southwest 321 369 19,000 -120 Level New York Center
03:48PM 39.9500 -76.6500 238° Southwest 338 389 18,600 -540 Descending Potomac TRACON
03:49PM 39.9000 -76.7667 241° Southwest 290 334 17,100 -1,440 Descending Potomac TRACON
03:50PM 39.8667 -76.8333 237° Southwest 255 293 15,600 -1,500 Descending Potomac TRACON
03:51PM 39.8333 -76.9167 243° Southwest 259 298 14,100 -1,500 Descending Potomac TRACON
03:52PM 39.8000 -76.9833 237° Southwest 257 296 12,800 -1,320 Descending Potomac TRACON
03:53PM 39.7667 -77.0667 243° Southwest 252 290 11,600 -1,260 Descending Potomac TRACON
03:54PM 39.7167 -77.1333 226° Southwest 240 276 10,300 -1,440 Descending Potomac TRACON
03:55PM 39.6833 -77.2167 243° Southwest 240 276 8,800 -1,500 Descending Potomac TRACON
03:56PM 39.6500 -77.2833 237° Southwest 241 277 7,300 -900 Descending Potomac TRACON
03:57PM 39.6167 -77.3500 237° Southwest 214 246 7,000 -180 Descending Potomac TRACON
03:58PM 39.5833 -77.4000 229° Southwest 205 236 7,000 -540 Level Potomac TRACON
03:59PM 39.5333 -77.4667 226° Southwest 209 241 6,000 -900 Descending Potomac TRACON
04:00PM 39.5167 -77.5167 247° West 189 217 5,200 -960 Descending Potomac TRACON
04:01PM 39.4833 -77.5833 237° Southwest 170 196 4,100 -600 Descending Potomac TRACON
04:02PM 39.4500 -77.6167 218° Southwest 174 200 4,000 -60 Descending Potomac TRACON
04:03PM 39.4167 -77.6500 218° Southwest 168 193 4,000  Level Potomac TRACON
04:04PM 39.3667 -77.6667 194° South 165 190 4,000  Level Potomac TRACON
04:05PM 39.3167 -77.6833 194° South 169 194 4,000  Level Potomac TRACON
04:06PM 39.2833 -77.7000 201° Southwest 169 194 4,000  Level Potomac TRACON
04:07PM 39.2333 -77.7167 194° South 173 199 4,000  Level Potomac TRACON
04:08PM 39.1833 -77.7333 194° South 166 191 4,000  Level Potomac TRACON
04:09PM 39.1500 -77.7667 218° Southwest 168 193 4,000  Level Potomac TRACON
04:10PM 39.1000 -77.7833 195° South 174 200 4,000  Level Potomac TRACON
04:11PM 39.0500 -77.7833 180° South 177 204 4,000  Level Potomac TRACON
04:12PM 39.0000 -77.7667 165° South 174 200 4,000 -540 Level Potomac TRACON
04:13PM 38.9500 -77.7667 180° South 174 200 3,000 -720 Descending Potomac TRACON
04:14PM 38.9167 -77.7333 142° Southeast 190 219 2,600 -240 Descending Potomac TRACON
04:15PM 38.9000 -77.6667 108° East 194 223 2,600  Level Potomac TRACON
04:16PM 38.8833 -77.6167 113° Southeast 193 222 2,600  Level Potomac TRACON
04:17PM 38.8333 -77.5833 153° Southeast 173 199 2,600 -480 Level Potomac TRACON
04:18PM 38.8000 -77.5667 159° South 164 189 1,700 -900 Descending Potomac TRACON